sensor_id;sensor_type;location;lat;lon;timestamp;pressure;altitude;pressure_sealevel;temperature;humidity
56713;BME280;42589;45.536;9.032;2023-04-16T00:00:01;99148.44;;;19.81;37.22
56713;BME280;42589;45.536;9.032;2023-04-16T00:03:03;99161.19;;;17.29;42.27
56713;BME280;42589;45.536;9.032;2023-04-16T00:06:04;99142.84;;;19.09;39.03
56713;BME280;42589;45.536;9.032;2023-04-16T00:09:05;99132.44;;;19.49;38.50
56713;BME280;42589;45.536;9.032;2023-04-16T00:12:06;99143.63;;;19.83;37.81
56713;BME280;42589;45.536;9.032;2023-04-16T00:15:07;99138.84;;;19.85;37.30
56713;BME280;42589;45.536;9.032;2023-04-16T00:18:09;99143.09;;;19.93;36.01
56713;BME280;42589;45.536;9.032;2023-04-16T00:21:09;99122.09;;;18.73;39.17
56713;BME280;42589;45.536;9.032;2023-04-16T00:24:10;99152.84;;;18.02;40.20
56713;BME280;42589;45.536;9.032;2023-04-16T00:27:11;99147.31;;;19.52;37.68
56713;BME280;42589;45.536;9.032;2023-04-16T00:30:12;99150.78;;;20.20;36.37
56713;BME280;42589;45.536;9.032;2023-04-16T00:33:13;99149.09;;;20.37;35.64
56713;BME280;42589;45.536;9.032;2023-04-16T00:36:14;99152.16;;;20.10;36.55
56713;BME280;42589;45.536;9.032;2023-04-16T00:39:15;99150.31;;;20.23;36.41
56713;BME280;42589;45.536;9.032;2023-04-16T00:42:17;99132.56;;;20.03;36.53
56713;BME280;42589;45.536;9.032;2023-04-16T00:45:18;99155.63;;;20.29;35.94
56713;BME280;42589;45.536;9.032;2023-04-16T00:48:22;99164.34;;;20.43;35.31
56713;BME280;42589;45.536;9.032;2023-04-16T00:51:22;99150.13;;;20.36;36.05
56713;BME280;42589;45.536;9.032;2023-04-16T00:54:24;99150.94;;;19.28;38.16
56713;BME280;42589;45.536;9.032;2023-04-16T00:57:25;99165.28;;;19.58;37.50
56713;BME280;42589;45.536;9.032;2023-04-16T01:00:26;99166.41;;;19.14;38.47
56713;BME280;42589;45.536;9.032;2023-04-16T01:03:59;99155.88;;;19.67;37.73
56713;BME280;42589;45.536;9.032;2023-04-16T01:07:00;99158.94;;;19.53;37.91
56713;BME280;42589;45.536;9.032;2023-04-16T01:10:01;99154.75;;;19.38;37.73
56713;BME280;42589;45.536;9.032;2023-04-16T01:13:02;99142.56;;;19.36;37.31
56713;BME280;42589;45.536;9.032;2023-04-16T01:16:05;99146.50;;;19.33;36.98
56713;BME280;42589;45.536;9.032;2023-04-16T01:19:06;99152.34;;;19.48;36.28
56713;BME280;42589;45.536;9.032;2023-04-16T01:22:07;99147.41;;;19.09;37.54
56713;BME280;42589;45.536;9.032;2023-04-16T01:25:13;99151.97;;;19.27;37.31
56713;BME280;42589;45.536;9.032;2023-04-16T01:28:13;99167.63;;;18.74;38.47
56713;BME280;42589;45.536;9.032;2023-04-16T01:31:14;99175.28;;;18.71;38.54
56713;BME280;42589;45.536;9.032;2023-04-16T01:34:16;99175.22;;;19.02;38.19
56713;BME280;42589;45.536;9.032;2023-04-16T01:37:16;99164.72;;;19.19;38.02
56713;BME280;42589;45.536;9.032;2023-04-16T01:40:18;99167.69;;;19.11;38.01
56713;BME280;42589;45.536;9.032;2023-04-16T01:43:19;99166.84;;;18.92;38.19
56713;BME280;42589;45.536;9.032;2023-04-16T01:46:26;99169.75;;;18.66;39.42
56713;BME280;42589;45.536;9.032;2023-04-16T01:49:28;99155.97;;;18.81;38.48
56713;BME280;42589;45.536;9.032;2023-04-16T01:52:29;99158.94;;;18.72;38.85
56713;BME280;42589;45.536;9.032;2023-04-16T01:55:32;99155.97;;;18.81;38.55
56713;BME280;42589;45.536;9.032;2023-04-16T01:58:34;99164.44;;;18.59;39.17
56713;BME280;42589;45.536;9.032;2023-04-16T02:01:35;99169.03;;;18.77;38.60
56713;BME280;42589;45.536;9.032;2023-04-16T02:04:37;99159.47;;;18.56;39.42
56713;BME280;42589;45.536;9.032;2023-04-16T02:07:41;99151.91;;;18.71;39.13
56713;BME280;42589;45.536;9.032;2023-04-16T02:10:48;99164.72;;;18.76;39.01
56713;BME280;42589;45.536;9.032;2023-04-16T02:13:49;99167.50;;;18.63;38.99
56713;BME280;42589;45.536;9.032;2023-04-16T02:16:50;99153.47;;;18.29;39.48
56713;BME280;42589;45.536;9.032;2023-04-16T02:19:51;99162.00;;;18.51;39.44
56713;BME280;42589;45.536;9.032;2023-04-16T02:22:52;99174.84;;;18.49;39.26
56713;BME280;42589;45.536;9.032;2023-04-16T02:25:53;99174.13;;;18.03;40.32
56713;BME280;42589;45.536;9.032;2023-04-16T02:28:54;99171.69;;;17.95;40.55
56713;BME280;42589;45.536;9.032;2023-04-16T02:31:55;99170.75;;;18.15;40.37
56713;BME280;42589;45.536;9.032;2023-04-16T02:34:56;99165.66;;;18.00;39.83
56713;BME280;42589;45.536;9.032;2023-04-16T02:37:57;99172.09;;;17.99;40.26
56713;BME280;42589;45.536;9.032;2023-04-16T02:44:55;99153.53;;;17.84;40.18
56713;BME280;42589;45.536;9.032;2023-04-16T02:47:56;99166.50;;;17.94;40.10
56713;BME280;42589;45.536;9.032;2023-04-16T02:50:57;99153.97;;;17.81;40.11
56713;BME280;42589;45.536;9.032;2023-04-16T02:53:58;99164.91;;;17.86;39.82
56713;BME280;42589;45.536;9.032;2023-04-16T02:56:59;99165.84;;;18.05;39.54
56713;BME280;42589;45.536;9.032;2023-04-16T03:00:01;99152.88;;;17.89;39.89
56713;BME280;42589;45.536;9.032;2023-04-16T03:03:04;99165.75;;;17.86;40.04
56713;BME280;42589;45.536;9.032;2023-04-16T03:06:05;99161.72;;;17.57;40.62
56713;BME280;42589;45.536;9.032;2023-04-16T03:09:05;99150.13;;;17.63;40.66
56713;BME280;42589;45.536;9.032;2023-04-16T03:12:06;99160.41;;;17.73;40.17
56713;BME280;42589;45.536;9.032;2023-04-16T03:15:07;99141.50;;;17.48;40.32
56713;BME280;42589;45.536;9.032;2023-04-16T03:18:08;99171.38;;;17.65;40.55
56713;BME280;42589;45.536;9.032;2023-04-16T03:21:10;99144.34;;;17.53;40.77
56713;BME280;42589;45.536;9.032;2023-04-16T03:24:11;99165.44;;;17.50;41.00
56713;BME280;42589;45.536;9.032;2023-04-16T03:27:12;99146.13;;;17.21;41.00
56713;BME280;42589;45.536;9.032;2023-04-16T03:30:13;99150.09;;;17.05;41.12
56713;BME280;42589;45.536;9.032;2023-04-16T03:33:15;99165.81;;;16.88;42.23
56713;BME280;42589;45.536;9.032;2023-04-16T03:36:16;99166.59;;;17.22;41.52
56713;BME280;42589;45.536;9.032;2023-04-16T03:39:17;99163.13;;;16.88;41.41
56713;BME280;42589;45.536;9.032;2023-04-16T03:42:18;99170.13;;;17.16;40.83
56713;BME280;42589;45.536;9.032;2023-04-16T03:45:18;99170.72;;;17.11;41.45
56713;BME280;42589;45.536;9.032;2023-04-16T03:48:19;99176.31;;;16.70;42.18
56713;BME280;42589;45.536;9.032;2023-04-16T03:51:20;99181.69;;;16.57;42.86
56713;BME280;42589;45.536;9.032;2023-04-16T03:54:21;99181.72;;;16.77;42.12
56713;BME280;42589;45.536;9.032;2023-04-16T03:57:21;99183.56;;;16.89;41.84
56713;BME280;42589;45.536;9.032;2023-04-16T04:00:22;99187.06;;;16.90;42.03
56713;BME280;42589;45.536;9.032;2023-04-16T04:03:23;99193.66;;;16.67;42.33
56713;BME280;42589;45.536;9.032;2023-04-16T04:06:25;99181.72;;;16.77;41.88
56713;BME280;42589;45.536;9.032;2023-04-16T04:09:27;99180.06;;;16.82;42.04
56713;BME280;42589;45.536;9.032;2023-04-16T04:12:48;99171.38;;;16.80;41.59
56713;BME280;42589;45.536;9.032;2023-04-16T04:15:49;99168.47;;;16.35;42.48
56713;BME280;42589;45.536;9.032;2023-04-16T04:18:50;99169.75;;;16.59;41.89
56713;BME280;42589;45.536;9.032;2023-04-16T04:21:51;99182.00;;;15.94;43.02
56713;BME280;42589;45.536;9.032;2023-04-16T04:24:52;99182.94;;;16.54;42.50
56713;BME280;42589;45.536;9.032;2023-04-16T04:27:56;99195.28;;;16.35;42.59
56713;BME280;42589;45.536;9.032;2023-04-16T04:30:57;99193.00;;;16.25;42.67
56713;BME280;42589;45.536;9.032;2023-04-16T04:33:58;99177.34;;;16.36;42.95
56713;BME280;42589;45.536;9.032;2023-04-16T04:36:59;99182.94;;;16.34;42.28
56713;BME280;42589;45.536;9.032;2023-04-16T04:40:00;99194.47;;;16.28;41.73
56713;BME280;42589;45.536;9.032;2023-04-16T04:43:01;99191.38;;;16.44;41.96
56713;BME280;42589;45.536;9.032;2023-04-16T04:46:02;99194.44;;;16.08;42.52
56713;BME280;42589;45.536;9.032;2023-04-16T04:49:03;99178.19;;;16.43;41.66
56713;BME280;42589;45.536;9.032;2023-04-16T04:52:04;99179.22;;;16.48;41.79
56713;BME280;42589;45.536;9.032;2023-04-16T04:55:08;99191.19;;;16.53;41.57
56713;BME280;42589;45.536;9.032;2023-04-16T04:58:09;99189.13;;;16.61;41.35
56713;BME280;42589;45.536;9.032;2023-04-16T05:01:09;99200.91;;;16.80;40.88
56713;BME280;42589;45.536;9.032;2023-04-16T05:04:11;99200.28;;;16.71;41.26
56713;BME280;42589;45.536;9.032;2023-04-16T05:07:11;99196.97;;;16.50;41.31
56713;BME280;42589;45.536;9.032;2023-04-16T05:10:13;99221.47;;;16.33;42.27
56713;BME280;42589;45.536;9.032;2023-04-16T05:13:14;99224.88;;;16.82;41.77
56713;BME280;42589;45.536;9.032;2023-04-16T05:16:14;99206.72;;;16.90;40.41
56713;BME280;42589;45.536;9.032;2023-04-16T05:19:15;99216.41;;;16.91;40.90
56713;BME280;42589;45.536;9.032;2023-04-16T05:22:16;99219.69;;;16.93;40.63
56713;BME280;42589;45.536;9.032;2023-04-16T05:25:18;99216.59;;;16.70;40.58
56713;BME280;42589;45.536;9.032;2023-04-16T05:28:19;99230.00;;;16.97;40.40
56713;BME280;42589;45.536;9.032;2023-04-16T05:31:20;99218.66;;;17.08;40.46
56713;BME280;42589;45.536;9.032;2023-04-16T05:34:20;99230.88;;;17.04;40.86
56713;BME280;42589;45.536;9.032;2023-04-16T05:37:21;99230.63;;;17.05;40.33
56713;BME280;42589;45.536;9.032;2023-04-16T05:40:22;99221.28;;;17.34;40.44
56713;BME280;42589;45.536;9.032;2023-04-16T05:43:23;99230.41;;;17.27;40.21
56713;BME280;42589;45.536;9.032;2023-04-16T05:46:24;99216.31;;;17.51;39.56
56713;BME280;42589;45.536;9.032;2023-04-16T05:49:25;99219.19;;;17.50;39.20
56713;BME280;42589;45.536;9.032;2023-04-16T05:52:27;99224.84;;;17.93;38.88
56713;BME280;42589;45.536;9.032;2023-04-16T05:55:27;99251.00;;;17.59;39.88
56713;BME280;42589;45.536;9.032;2023-04-16T05:58:43;99240.41;;;18.23;38.76
56713;BME280;42589;45.536;9.032;2023-04-16T06:01:43;99242.34;;;18.09;38.97
56713;BME280;42589;45.536;9.032;2023-04-16T06:04:44;99257.56;;;18.28;38.90
56713;BME280;42589;45.536;9.032;2023-04-16T06:07:45;99251.16;;;18.23;38.84
56713;BME280;42589;45.536;9.032;2023-04-16T06:10:47;99246.75;;;18.35;38.15
56713;BME280;42589;45.536;9.032;2023-04-16T06:13:48;99242.44;;;17.96;39.33
56713;BME280;42589;45.536;9.032;2023-04-16T06:16:49;99254.06;;;18.60;38.12
56713;BME280;42589;45.536;9.032;2023-04-16T06:19:50;99246.97;;;18.97;37.94
56713;BME280;42589;45.536;9.032;2023-04-16T06:22:50;99252.34;;;19.22;37.60
56713;BME280;42589;45.536;9.032;2023-04-16T06:25:51;99253.28;;;19.09;37.90
56713;BME280;42589;45.536;9.032;2023-04-16T06:28:53;99229.00;;;19.16;37.43
56713;BME280;42589;45.536;9.032;2023-04-16T06:31:55;99269.34;;;19.41;37.22
56713;BME280;42589;45.536;9.032;2023-04-16T06:34:59;99263.66;;;19.31;37.88
56713;BME280;42589;45.536;9.032;2023-04-16T06:38:00;99265.59;;;19.85;36.78
56713;BME280;42589;45.536;9.032;2023-04-16T06:41:01;99269.84;;;20.11;36.72
56713;BME280;42589;45.536;9.032;2023-04-16T06:44:02;99247.00;;;20.26;36.20
56713;BME280;42589;45.536;9.032;2023-04-16T06:47:03;99253.19;;;20.14;35.94
56713;BME280;42589;45.536;9.032;2023-04-16T06:50:04;99273.47;;;20.66;35.84
56713;BME280;42589;45.536;9.032;2023-04-16T06:53:05;99253.53;;;20.78;35.36
56713;BME280;42589;45.536;9.032;2023-04-16T06:56:06;99282.06;;;20.44;35.39
56713;BME280;42589;45.536;9.032;2023-04-16T06:59:07;99262.19;;;20.08;36.47
56713;BME280;42589;45.536;9.032;2023-04-16T07:02:09;99270.81;;;20.89;34.69
56713;BME280;42589;45.536;9.032;2023-04-16T07:05:10;99292.84;;;20.14;36.05
56713;BME280;42589;45.536;9.032;2023-04-16T07:08:12;99296.72;;;20.36;35.83
56713;BME280;42589;45.536;9.032;2023-04-16T07:11:13;99278.84;;;21.07;35.43
56713;BME280;42589;45.536;9.032;2023-04-16T07:14:14;99269.78;;;21.14;34.60
56713;BME280;42589;45.536;9.032;2023-04-16T07:17:15;99283.53;;;21.12;34.74
56713;BME280;42589;45.536;9.032;2023-04-16T07:20:16;99288.25;;;21.75;34.80
56713;BME280;42589;45.536;9.032;2023-04-16T07:23:17;99285.91;;;21.67;33.82
56713;BME280;42589;45.536;9.032;2023-04-16T07:26:18;99281.81;;;22.17;33.63
56713;BME280;42589;45.536;9.032;2023-04-16T07:29:18;99281.75;;;21.88;33.68
56713;BME280;42589;45.536;9.032;2023-04-16T07:32:20;99279.00;;;21.48;34.64
56713;BME280;42589;45.536;9.032;2023-04-16T07:35:21;99269.44;;;21.81;34.13
56713;BME280;42589;45.536;9.032;2023-04-16T07:38:24;99253.31;;;21.86;33.89
56713;BME280;42589;45.536;9.032;2023-04-16T07:41:25;99271.69;;;22.12;33.43
56713;BME280;42589;45.536;9.032;2023-04-16T07:44:56;99294.81;;;22.43;32.90
56713;BME280;42589;45.536;9.032;2023-04-16T07:47:57;99291.22;;;22.26;33.16
56713;BME280;42589;45.536;9.032;2023-04-16T07:50:59;99294.69;;;22.38;33.77
56713;BME280;42589;45.536;9.032;2023-04-16T07:54:00;99277.34;;;22.22;32.83
56713;BME280;42589;45.536;9.032;2023-04-16T07:57:01;99291.47;;;22.24;33.31
56713;BME280;42589;45.536;9.032;2023-04-16T08:00:03;99304.91;;;22.48;33.14
56713;BME280;42589;45.536;9.032;2023-04-16T08:03:04;99304.09;;;21.95;32.88
56713;BME280;42589;45.536;9.032;2023-04-16T08:06:05;99305.94;;;22.76;32.64
56713;BME280;42589;45.536;9.032;2023-04-16T08:09:18;99312.34;;;22.69;33.37
56713;BME280;42589;45.536;9.032;2023-04-16T08:12:36;99307.91;;;22.63;33.32
56713;BME280;42589;45.536;9.032;2023-04-16T08:15:52;99277.31;;;21.82;33.98
56713;BME280;42589;45.536;9.032;2023-04-16T08:18:54;99295.44;;;22.34;33.69
56713;BME280;42589;45.536;9.032;2023-04-16T08:22:04;99323.47;;;22.56;33.41
56713;BME280;42589;45.536;9.032;2023-04-16T08:25:05;99322.19;;;22.59;33.76
56713;BME280;42589;45.536;9.032;2023-04-16T08:28:06;99327.81;;;22.86;33.67
56713;BME280;42589;45.536;9.032;2023-04-16T08:31:07;99335.09;;;22.97;33.18
56713;BME280;42589;45.536;9.032;2023-04-16T08:34:09;99326.63;;;23.10;33.25
56713;BME280;42589;45.536;9.032;2023-04-16T08:37:10;99312.59;;;23.13;32.76
56713;BME280;42589;45.536;9.032;2023-04-16T08:40:12;99339.72;;;22.85;32.54
56713;BME280;42589;45.536;9.032;2023-04-16T08:43:14;99326.06;;;22.51;33.07
56713;BME280;42589;45.536;9.032;2023-04-16T08:46:16;99344.25;;;22.96;32.84
56713;BME280;42589;45.536;9.032;2023-04-16T08:49:16;99333.25;;;22.57;32.37
56713;BME280;42589;45.536;9.032;2023-04-16T08:52:18;99325.16;;;23.20;31.98
56713;BME280;42589;45.536;9.032;2023-04-16T08:55:39;99326.38;;;23.12;32.73
56713;BME280;42589;45.536;9.032;2023-04-16T08:58:47;99319.56;;;23.26;32.19
56713;BME280;42589;45.536;9.032;2023-04-16T09:01:49;99308.31;;;23.34;31.35
56713;BME280;42589;45.536;9.032;2023-04-16T09:04:52;99325.47;;;23.57;30.80
56713;BME280;42589;45.536;9.032;2023-04-16T09:07:53;99321.00;;;22.14;33.26
56713;BME280;42589;45.536;9.032;2023-04-16T09:10:54;99322.94;;;23.16;31.56
56713;BME280;42589;45.536;9.032;2023-04-16T09:13:56;99344.53;;;23.45;32.27
56713;BME280;42589;45.536;9.032;2023-04-16T09:16:59;99328.75;;;23.42;32.13
56713;BME280;42589;45.536;9.032;2023-04-16T09:20:03;99333.69;;;23.45;31.63
56713;BME280;42589;45.536;9.032;2023-04-16T09:23:05;99349.63;;;23.58;31.95
56713;BME280;42589;45.536;9.032;2023-04-16T09:26:06;99341.34;;;23.31;31.88
56713;BME280;42589;45.536;9.032;2023-04-16T09:29:07;99336.41;;;23.79;31.89
56713;BME280;42589;45.536;9.032;2023-04-16T09:32:10;99356.69;;;23.59;32.00
56713;BME280;42589;45.536;9.032;2023-04-16T09:35:11;99349.53;;;24.09;31.66
56713;BME280;42589;45.536;9.032;2023-04-16T09:38:12;99358.50;;;24.09;31.23
56713;BME280;42589;45.536;9.032;2023-04-16T09:41:13;99360.53;;;24.19;31.18
56713;BME280;42589;45.536;9.032;2023-04-16T09:44:16;99364.31;;;23.96;31.52
56713;BME280;42589;45.536;9.032;2023-04-16T09:47:17;99359.84;;;23.51;32.24
56713;BME280;42589;45.536;9.032;2023-04-16T09:50:18;99360.81;;;24.18;31.21
56713;BME280;42589;45.536;9.032;2023-04-16T09:53:23;99348.06;;;23.12;32.71
56713;BME280;42589;45.536;9.032;2023-04-16T09:56:24;99344.88;;;24.04;32.00
56713;BME280;42589;45.536;9.032;2023-04-16T09:59:30;99362.19;;;23.98;31.74
56713;BME280;42589;45.536;9.032;2023-04-16T10:02:34;99358.53;;;23.54;32.11
56713;BME280;42589;45.536;9.032;2023-04-16T10:05:38;99356.28;;;24.06;31.71
56713;BME280;42589;45.536;9.032;2023-04-16T10:08:43;99355.50;;;24.50;31.67
56713;BME280;42589;45.536;9.032;2023-04-16T10:11:47;99351.28;;;24.59;30.50
56713;BME280;42589;45.536;9.032;2023-04-16T10:14:49;99365.03;;;24.08;31.12
56713;BME280;42589;45.536;9.032;2023-04-16T10:17:50;99358.19;;;24.06;31.65
56713;BME280;42589;45.536;9.032;2023-04-16T10:20:51;99365.50;;;23.83;31.95
56713;BME280;42589;45.536;9.032;2023-04-16T10:23:52;99367.41;;;24.05;31.37
56713;BME280;42589;45.536;9.032;2023-04-16T10:26:53;99368.88;;;23.74;31.11
56713;BME280;42589;45.536;9.032;2023-04-16T10:29:55;99363.13;;;24.31;30.74
56713;BME280;42589;45.536;9.032;2023-04-16T10:33:02;99336.16;;;24.68;30.36
56713;BME280;42589;45.536;9.032;2023-04-16T10:36:13;99356.34;;;25.37;30.30
56713;BME280;42589;45.536;9.032;2023-04-16T10:39:20;99337.31;;;25.37;29.06
56713;BME280;42589;45.536;9.032;2023-04-16T10:42:21;99350.25;;;25.19;29.25
56713;BME280;42589;45.536;9.032;2023-04-16T10:45:35;99319.50;;;25.99;28.86
56713;BME280;42589;45.536;9.032;2023-04-16T10:48:36;99338.38;;;26.15;28.04
56713;BME280;42589;45.536;9.032;2023-04-16T10:51:37;99346.78;;;25.66;28.38
56713;BME280;42589;45.536;9.032;2023-04-16T10:54:39;99316.78;;;25.56;29.00
56713;BME280;42589;45.536;9.032;2023-04-16T10:57:40;99320.88;;;25.54;29.45
56713;BME280;42589;45.536;9.032;2023-04-16T11:00:50;99331.81;;;25.64;30.03
56713;BME280;42589;45.536;9.032;2023-04-16T11:03:52;99337.38;;;26.47;29.05
56713;BME280;42589;45.536;9.032;2023-04-16T11:10:04;99294.84;;;26.31;28.90
56713;BME280;42589;45.536;9.032;2023-04-16T11:13:05;99326.31;;;26.69;28.99
56713;BME280;42589;45.536;9.032;2023-04-16T11:16:09;99310.50;;;25.56;30.16
56713;BME280;42589;45.536;9.032;2023-04-16T11:19:15;99298.34;;;25.26;30.67
56713;BME280;42589;45.536;9.032;2023-04-16T11:22:19;99302.16;;;26.20;29.94
56713;BME280;42589;45.536;9.032;2023-04-16T11:25:20;99314.50;;;26.43;28.82
56713;BME280;42589;45.536;9.032;2023-04-16T11:28:32;99307.19;;;25.86;30.07
56713;BME280;42589;45.536;9.032;2023-04-16T11:31:32;99308.50;;;26.36;29.16
56713;BME280;42589;45.536;9.032;2023-04-16T11:34:42;99295.66;;;26.26;29.97
56713;BME280;42589;45.536;9.032;2023-04-16T11:37:43;99292.22;;;26.56;28.98
56713;BME280;42589;45.536;9.032;2023-04-16T11:40:48;99297.28;;;26.27;28.61
56713;BME280;42589;45.536;9.032;2023-04-16T11:43:50;99261.78;;;26.02;29.07
56713;BME280;42589;45.536;9.032;2023-04-16T11:46:55;99256.34;;;26.02;28.70
56713;BME280;42589;45.536;9.032;2023-04-16T11:50:24;99258.94;;;26.54;28.82
56713;BME280;42589;45.536;9.032;2023-04-16T11:53:25;99251.78;;;25.17;29.37
56713;BME280;42589;45.536;9.032;2023-04-16T11:56:28;99258.66;;;26.46;27.70
56713;BME280;42589;45.536;9.032;2023-04-16T11:59:31;99273.72;;;25.85;28.40
56713;BME280;42589;45.536;9.032;2023-04-16T12:02:52;99246.91;;;25.72;27.43
56713;BME280;42589;45.536;9.032;2023-04-16T12:05:54;99238.84;;;25.87;27.51
56713;BME280;42589;45.536;9.032;2023-04-16T12:09:33;99263.34;;;26.71;27.30
56713;BME280;42589;45.536;9.032;2023-04-16T12:12:35;99248.53;;;26.41;28.17
56713;BME280;42589;45.536;9.032;2023-04-16T12:15:49;99251.06;;;26.99;27.66
56713;BME280;42589;45.536;9.032;2023-04-16T12:18:58;99262.81;;;27.15;27.03
56713;BME280;42589;45.536;9.032;2023-04-16T12:22:03;99266.34;;;26.95;26.72
56713;BME280;42589;45.536;9.032;2023-04-16T12:25:10;99228.69;;;25.20;29.28
56713;BME280;42589;45.536;9.032;2023-04-16T12:28:11;99228.09;;;26.38;26.82
56713;BME280;42589;45.536;9.032;2023-04-16T12:31:13;99256.53;;;27.14;26.21
56713;BME280;42589;45.536;9.032;2023-04-16T12:34:15;99218.34;;;27.04;25.58
56713;BME280;42589;45.536;9.032;2023-04-16T12:37:18;99229.81;;;26.91;26.31
56713;BME280;42589;45.536;9.032;2023-04-16T12:40:20;99216.72;;;27.18;26.28
56713;BME280;42589;45.536;9.032;2023-04-16T12:43:22;99212.91;;;27.14;26.21
56713;BME280;42589;45.536;9.032;2023-04-16T12:46:23;99203.34;;;27.01;26.48
56713;BME280;42589;45.536;9.032;2023-04-16T12:49:25;99217.78;;;27.07;26.79
56713;BME280;42589;45.536;9.032;2023-04-16T12:52:25;99209.09;;;27.15;27.12
56713;BME280;42589;45.536;9.032;2023-04-16T12:55:27;99211.53;;;26.91;26.10
56713;BME280;42589;45.536;9.032;2023-04-16T12:58:29;99241.97;;;27.65;25.69
56713;BME280;42589;45.536;9.032;2023-04-16T13:01:31;99202.34;;;27.77;26.01
56713;BME280;42589;45.536;9.032;2023-04-16T13:04:35;99223.97;;;27.69;24.82
56713;BME280;42589;45.536;9.032;2023-04-16T13:07:36;99210.19;;;26.58;26.29
56713;BME280;42589;45.536;9.032;2023-04-16T13:10:37;99181.56;;;26.66;25.51
56713;BME280;42589;45.536;9.032;2023-04-16T13:13:38;99181.78;;;26.38;26.16
56713;BME280;42589;45.536;9.032;2023-04-16T13:16:39;99205.56;;;26.74;26.10
56713;BME280;42589;45.536;9.032;2023-04-16T13:19:40;99180.94;;;27.30;26.26
56713;BME280;42589;45.536;9.032;2023-04-16T13:22:41;99177.25;;;27.70;25.52
56713;BME280;42589;45.536;9.032;2023-04-16T13:25:42;99206.19;;;27.82;25.36
56713;BME280;42589;45.536;9.032;2023-04-16T13:28:43;99181.34;;;27.68;25.06
56713;BME280;42589;45.536;9.032;2023-04-16T13:31:48;99175.28;;;27.91;24.92
56713;BME280;42589;45.536;9.032;2023-04-16T13:34:49;99198.25;;;28.30;24.19
56713;BME280;42589;45.536;9.032;2023-04-16T13:37:50;99163.53;;;26.13;26.34
56713;BME280;42589;45.536;9.032;2023-04-16T13:40:51;99158.84;;;27.26;25.55
56713;BME280;42589;45.536;9.032;2023-04-16T13:43:53;99189.38;;;28.48;24.65
56713;BME280;42589;45.536;9.032;2023-04-16T13:46:54;99183.47;;;28.31;24.61
56713;BME280;42589;45.536;9.032;2023-04-16T13:49:55;99170.63;;;27.92;24.88
56713;BME280;42589;45.536;9.032;2023-04-16T13:52:56;99163.16;;;28.08;23.78
56713;BME280;42589;45.536;9.032;2023-04-16T13:55:57;99183.56;;;28.20;24.55
56713;BME280;42589;45.536;9.032;2023-04-16T13:58:58;99168.25;;;28.19;24.34
56713;BME280;42589;45.536;9.032;2023-04-16T14:01:59;99176.47;;;28.59;24.63
56713;BME280;42589;45.536;9.032;2023-04-16T14:05:00;99178.44;;;28.04;24.78
56713;BME280;42589;45.536;9.032;2023-04-16T14:08:01;99173.25;;;28.52;24.13
56713;BME280;42589;45.536;9.032;2023-04-16T14:11:02;99168.06;;;28.50;25.56
56713;BME280;42589;45.536;9.032;2023-04-16T14:14:04;99173.28;;;28.07;24.68
56713;BME280;42589;45.536;9.032;2023-04-16T14:17:05;99164.53;;;28.44;24.40
56713;BME280;42589;45.536;9.032;2023-04-16T14:20:07;99165.47;;;28.64;24.64
56713;BME280;42589;45.536;9.032;2023-04-16T14:23:08;99157.75;;;28.42;24.22
56713;BME280;42589;45.536;9.032;2023-04-16T14:26:12;99150.41;;;27.88;24.45
56713;BME280;42589;45.536;9.032;2023-04-16T14:29:13;99165.88;;;28.52;25.03
56713;BME280;42589;45.536;9.032;2023-04-16T14:32:14;99162.28;;;29.39;22.79
56713;BME280;42589;45.536;9.032;2023-04-16T14:35:14;99146.88;;;29.24;23.92
56713;BME280;42589;45.536;9.032;2023-04-16T14:38:15;99158.50;;;27.48;24.83
56713;BME280;42589;45.536;9.032;2023-04-16T14:41:25;99150.91;;;28.39;24.35
56713;BME280;42589;45.536;9.032;2023-04-16T14:44:29;99165.84;;;29.15;23.92
56713;BME280;42589;45.536;9.032;2023-04-16T14:47:30;99169.09;;;29.42;23.47
56713;BME280;42589;45.536;9.032;2023-04-16T14:50:33;99162.06;;;29.35;23.32
56713;BME280;42589;45.536;9.032;2023-04-16T14:53:37;99163.16;;;29.10;22.77
56713;BME280;42589;45.536;9.032;2023-04-16T14:56:38;99152.41;;;29.86;23.10
56713;BME280;42589;45.536;9.032;2023-04-16T14:59:39;99165.94;;;30.15;22.35
56713;BME280;42589;45.536;9.032;2023-04-16T15:02:41;99143.88;;;29.21;23.34
56713;BME280;42589;45.536;9.032;2023-04-16T15:05:42;99142.91;;;28.14;23.94
56713;BME280;42589;45.536;9.032;2023-04-16T15:08:43;99163.94;;;29.83;23.24
56713;BME280;42589;45.536;9.032;2023-04-16T15:11:48;99151.06;;;28.87;23.12
56713;BME280;42589;45.536;9.032;2023-04-16T15:14:49;99153.22;;;29.44;23.08
56713;BME280;42589;45.536;9.032;2023-04-16T15:17:51;99147.66;;;29.73;23.12
56713;BME280;42589;45.536;9.032;2023-04-16T15:20:52;99128.84;;;29.42;22.44
56713;BME280;42589;45.536;9.032;2023-04-16T15:23:53;99143.94;;;26.68;25.49
56713;BME280;42589;45.536;9.032;2023-04-16T15:26:55;99125.41;;;26.65;25.45
56713;BME280;42589;45.536;9.032;2023-04-16T15:29:58;99144.09;;;28.37;24.31
56713;BME280;42589;45.536;9.032;2023-04-16T15:33:03;99147.00;;;30.00;22.29
56713;BME280;42589;45.536;9.032;2023-04-16T15:36:07;99119.69;;;30.14;22.19
56713;BME280;42589;45.536;9.032;2023-04-16T15:39:14;99121.16;;;30.06;22.72
56713;BME280;42589;45.536;9.032;2023-04-16T15:42:38;99161.47;;;30.57;21.99
56713;BME280;42589;45.536;9.032;2023-04-16T15:45:43;99156.47;;;33.06;19.66
56713;BME280;42589;45.536;9.032;2023-04-16T15:48:45;99165.28;;;35.72;17.40
56713;BME280;42589;45.536;9.032;2023-04-16T15:51:47;99150.16;;;36.20;16.85
56713;BME280;42589;45.536;9.032;2023-04-16T15:54:48;99145.88;;;35.22;17.36
56713;BME280;42589;45.536;9.032;2023-04-16T15:57:48;99162.50;;;36.23;17.40
56713;BME280;42589;45.536;9.032;2023-04-16T16:00:49;99149.94;;;36.80;16.28
56713;BME280;42589;45.536;9.032;2023-04-16T16:03:50;99166.06;;;36.78;15.36
56713;BME280;42589;45.536;9.032;2023-04-16T16:06:51;99160.66;;;36.06;16.10
56713;BME280;42589;45.536;9.032;2023-04-16T16:09:53;99159.28;;;36.87;16.03
56713;BME280;42589;45.536;9.032;2023-04-16T16:12:55;99166.56;;;36.38;16.35